Time;durP1;ratioP1;P1;durP2;ratioP2;P2;SDS_P1;SDS_P2;PMS_P1;PMS_P2;Temp;Humidity;BMP_temperature;BMP_pressure;BME280_temperature;BME280_humidity;BME280_pressure;Samples;Min_cycle;Max_cycle;Signal;HPM_P1;HPM_P2
2022/06/16 00:00:54;;;;;;;4.30;3.63;;;20.90;62.20;;;;;;5011130;28;20198;-85
2022/06/16 00:03:20;;;;;;;3.70;3.40;;;20.90;62.10;;;;;;4994521;28;20195;-87
2022/06/16 00:05:46;;;;;;;3.78;3.47;;;20.90;62.20;;;;;;5011250;28;20159;-85
2022/06/16 00:08:14;;;;;;;3.83;3.42;;;20.90;62.20;;;;;;4994577;28;20176;-86
2022/06/16 00:11:16;;;;;;;3.70;3.40;;;20.80;62.10;;;;;;4994550;28;20196;-87
2022/06/16 00:13:28;;;;;;;3.60;3.30;;;20.80;62.10;;;;;;5008260;28;20266;-86
2022/06/16 00:15:54;;;;;;;4.15;3.70;;;20.90;62.20;;;;;;4994263;28;20250;-86
2022/06/16 00:18:22;;;;;;;3.60;3.30;;;20.80;62.10;;;;;;4994436;28;20171;-86
2022/06/16 00:20:48;;;;;;;4.10;3.70;;;20.90;62.20;;;;;;4993662;28;20207;-87
2022/06/16 00:23:13;;;;;;;3.60;3.30;;;20.80;62.10;;;;;;4994184;28;20666;-88
2022/06/16 00:25:39;;;;;;;4.18;3.78;;;20.90;62.10;;;;;;4994227;28;20168;-85
2022/06/16 00:28:05;;;;;;;3.70;3.40;;;20.90;62.10;;;;;;4994092;28;20172;-86
2022/06/16 00:30:30;;;;;;;3.80;3.50;;;20.90;62.10;;;;;;5010820;28;20194;-87
2022/06/16 00:32:56;;;;;;;3.50;3.20;;;20.80;62.10;;;;;;5010592;28;20231;-86
2022/06/16 00:35:22;;;;;;;3.58;3.28;;;20.80;62.10;;;;;;4995359;28;20215;-88
2022/06/16 00:37:48;;;;;;;3.67;3.38;;;20.90;62.20;;;;;;5010709;28;20161;-86
2022/06/16 00:40:14;;;;;;;4.18;3.78;;;20.80;62.10;;;;;;5010263;28;20624;-87
2022/06/16 00:42:40;;;;;;;3.72;3.42;;;20.80;62.10;;;;;;5010450;28;20247;-87
2022/06/16 00:45:39;;;;;;;4.05;3.65;;;20.90;62.10;;;;;;4993588;28;20215;-87
2022/06/16 00:48:05;;;;;;;3.97;3.58;;;20.80;62.10;;;;;;4995091;28;20156;-87
2022/06/16 00:50:31;;;;;;;3.55;3.25;;;20.80;62.10;;;;;;4993742;28;20172;-87
2022/06/16 00:52:56;;;;;;;3.30;3.00;;;20.90;62.20;;;;;;4993881;28;20183;-87
2022/06/16 00:55:22;;;;;;;3.83;3.53;;;20.80;62.10;;;;;;5010109;28;20171;-88
2022/06/16 00:57:48;;;;;;;3.90;3.60;;;20.80;62.20;;;;;;4993678;28;20168;-88
2022/06/16 01:02:55;;;;;;;4.10;3.70;;;20.80;62.10;;;;;;5008078;28;20191;-85
2022/06/16 01:05:23;;;;;;;3.92;3.55;;;20.80;62.10;;;;;;4993631;28;20540;-87
2022/06/16 01:07:48;;;;;;;3.92;3.60;;;20.80;62.20;;;;;;4993689;28;20172;-87
2022/06/16 01:10:14;;;;;;;3.50;3.20;;;20.90;62.30;;;;;;5009810;28;20163;-87
2022/06/16 01:16:21;;;;;;;3.72;3.40;;;20.80;62.20;;;;;;5004932;28;20572;-85
2022/06/16 01:19:04;;;;;;;4.10;3.60;;;20.80;62.10;;;;;;5009517;28;20275;-86
2022/06/16 01:21:42;;;;;;;3.50;3.20;;;20.80;62.20;;;;;;4991624;28;20649;-88
2022/06/16 01:24:41;;;;;;;4.03;3.60;;;20.80;62.20;;;;;;4994451;28;20187;-86
2022/06/16 01:27:41;;;;;;;3.92;3.63;;;20.80;62.20;;;;;;4993217;28;20581;-86
2022/06/16 01:30:10;;;;;;;3.85;3.45;;;20.80;62.20;;;;;;4993185;28;20175;-85
2022/06/16 01:32:48;;;;;;;3.60;3.30;;;20.80;62.20;;;;;;5009453;28;20148;-88
2022/06/16 01:35:30;;;;;;;3.90;3.60;;;20.80;62.20;;;;;;4992795;28;20266;-88
2022/06/16 01:38:13;;;;;;;3.63;3.33;;;20.80;62.30;;;;;;5009450;28;20166;-86
2022/06/16 01:41:03;;;;;;;3.65;3.35;;;20.80;62.20;;;;;;5009512;28;20160;-86
2022/06/16 01:43:35;;;;;;;3.75;3.42;;;20.80;62.20;;;;;;4992971;28;20668;-88
2022/06/16 01:46:09;;;;;;;4.18;3.78;;;20.80;62.30;;;;;;4993075;28;20230;-86
2022/06/16 01:48:35;;;;;;;3.90;3.60;;;20.80;62.30;;;;;;5009123;28;20166;-88
2022/06/16 01:51:09;;;;;;;3.85;3.50;;;20.80;62.30;;;;;;5009390;28;20152;-87
2022/06/16 01:53:38;;;;;;;3.95;3.55;;;20.80;62.40;;;;;;4992328;28;20538;-88
2022/06/16 01:56:15;;;;;;;4.03;3.63;;;20.70;62.30;;;;;;5009170;28;20158;-85
2022/06/16 01:58:41;;;;;;;3.85;3.55;;;20.70;62.30;;;;;;5008743;28;20159;-86
2022/06/16 02:01:08;;;;;;;4.07;3.67;;;20.70;62.20;;;;;;4992730;28;20180;-87
2022/06/16 02:03:38;;;;;;;4.25;3.85;;;20.70;62.20;;;;;;5008784;28;20223;-85
2022/06/16 02:06:09;;;;;;;4.05;3.65;;;20.70;62.30;;;;;;4992419;28;20179;-88
2022/06/16 02:08:37;;;;;;;3.67;3.30;;;20.80;62.40;;;;;;4992503;28;20172;-88
2022/06/16 02:11:10;;;;;;;3.70;3.40;;;20.70;62.30;;;;;;5008672;28;20519;-88
2022/06/16 02:13:39;;;;;;;3.83;3.53;;;20.80;62.40;;;;;;5008215;28;20234;-86
2022/06/16 02:16:22;;;;;;;3.60;3.30;;;20.70;62.40;;;;;;4992363;28;20531;-85
2022/06/16 02:18:51;;;;;;;4.18;3.78;;;20.70;62.40;;;;;;5008913;28;20214;-87
2022/06/16 02:21:33;;;;;;;3.67;3.25;;;20.70;62.40;;;;;;4996606;28;20299;-85
2022/06/16 02:24:00;;;;;;;3.53;3.22;;;20.70;62.40;;;;;;4997672;28;20238;-85
2022/06/16 02:26:26;;;;;;;4.03;3.63;;;20.70;62.40;;;;;;5013207;28;20152;-85
2022/06/16 02:28:54;;;;;;;3.75;3.42;;;20.70;62.30;;;;;;4996310;28;20581;-87
2022/06/16 02:31:44;;;;;;;3.42;3.13;;;20.70;62.50;;;;;;5012478;28;20643;-85
2022/06/16 02:34:34;;;;;;;3.83;3.53;;;20.70;62.40;;;;;;5012772;28;20152;-86
2022/06/16 02:37:24;;;;;;;4.50;4.10;;;20.70;62.40;;;;;;4997652;28;20164;-85
2022/06/16 02:40:25;;;;;;;3.83;3.47;;;20.70;62.40;;;;;;4996996;28;20187;-87
2022/06/16 02:43:25;;;;;;;4.47;3.80;;;20.60;62.40;;;;;;5008102;28;20164;-88
2022/06/16 02:46:25;;;;;;;3.67;3.25;;;20.70;62.50;;;;;;4996024;28;20251;-85
2022/06/16 02:49:05;;;;;;;3.63;3.30;;;20.70;62.50;;;;;;4996610;28;20164;-88
2022/06/16 02:51:43;;;;;;;3.58;3.28;;;20.70;62.50;;;;;;4997377;28;20159;-85
2022/06/16 02:54:25;;;;;;;4.10;3.70;;;20.70;62.50;;;;;;5011714;28;20206;-85
2022/06/16 02:57:24;;;;;;;4.15;3.75;;;20.70;62.50;;;;;;4997133;28;20210;-87
2022/06/16 02:59:55;;;;;;;3.78;3.47;;;20.70;62.50;;;;;;5012285;28;20157;-86
2022/06/16 03:02:21;;;;;;;4.03;3.63;;;20.70;62.50;;;;;;5011883;28;20160;-86
2022/06/16 03:04:51;;;;;;;3.97;3.67;;;20.70;62.50;;;;;;5012004;28;20219;-87
2022/06/16 03:07:17;;;;;;;3.63;3.33;;;20.70;62.60;;;;;;5012002;28;20157;-87
2022/06/16 03:09:43;;;;;;;3.65;3.35;;;20.70;62.60;;;;;;5012150;28;20167;-87
2022/06/16 03:12:09;;;;;;;3.95;3.55;;;20.60;62.50;;;;;;5012029;28;20156;-85
2022/06/16 03:14:35;;;;;;;3.90;3.50;;;20.70;62.60;;;;;;4995582;28;20218;-88
2022/06/16 03:17:02;;;;;;;4.07;3.67;;;20.70;62.60;;;;;;4995542;28;20211;-87
2022/06/16 03:19:27;;;;;;;3.75;3.45;;;20.70;62.60;;;;;;4995491;28;20227;-85
2022/06/16 03:21:54;;;;;;;3.80;3.50;;;20.70;62.60;;;;;;5011707;28;20625;-86
2022/06/16 03:24:20;;;;;;;3.65;3.35;;;20.60;62.60;;;;;;4995618;28;20634;-87
2022/06/16 03:26:46;;;;;;;3.88;3.53;;;20.60;62.60;;;;;;4995902;28;20246;-87
2022/06/16 03:29:12;;;;;;;3.67;3.38;;;20.60;62.60;;;;;;5011736;28;20629;-85
2022/06/16 03:31:38;;;;;;;4.00;3.60;;;20.70;62.70;;;;;;5011529;28;20574;-87
2022/06/16 03:34:03;;;;;;;3.70;3.40;;;20.60;62.60;;;;;;4996581;28;20170;-86
2022/06/16 03:36:29;;;;;;;3.60;3.30;;;20.60;62.60;;;;;;5011510;28;20190;-87
2022/06/16 03:38:55;;;;;;;4.00;3.60;;;20.60;62.60;;;;;;4995357;28;20175;-86
2022/06/16 03:41:20;;;;;;;3.90;3.50;;;20.60;62.60;;;;;;4995399;28;20172;-86
2022/06/16 03:43:46;;;;;;;3.92;3.53;;;20.50;62.50;;;;;;4995294;28;20218;-87
2022/06/16 03:46:12;;;;;;;3.90;3.60;;;20.60;62.60;;;;;;4994831;28;20258;-86
2022/06/16 03:48:38;;;;;;;3.65;3.35;;;20.60;62.60;;;;;;4995278;28;20176;-86
2022/06/16 03:51:05;;;;;;;3.90;3.60;;;20.60;62.60;;;;;;5011357;28;20240;-88
2022/06/16 03:53:32;;;;;;;3.75;3.45;;;20.60;62.70;;;;;;4994689;28;20180;-87
2022/06/16 03:55:58;;;;;;;3.92;3.53;;;20.60;62.60;;;;;;5011092;28;20171;-88
2022/06/16 03:58:23;;;;;;;3.50;3.20;;;20.50;62.60;;;;;;5011346;28;20169;-86
2022/06/16 04:00:50;;;;;;;3.70;3.40;;;20.50;62.70;;;;;;4994657;28;20187;-86
2022/06/16 04:05:55;;;;;;;3.80;3.38;;;20.60;62.70;;;;;;5009426;28;20144;-87
2022/06/16 04:08:20;;;;;;;3.70;3.40;;;20.50;62.70;;;;;;4994783;28;20709;-86
2022/06/16 04:10:47;;;;;;;3.30;3.00;;;20.50;62.70;;;;;;4994964;28;20586;-87
2022/06/16 04:13:13;;;;;;;3.83;3.22;;;20.60;62.70;;;;;;4994903;28;20180;-85
2022/06/16 04:15:39;;;;;;;3.75;3.45;;;20.60;62.70;;;;;;5010742;28;20157;-87
2022/06/16 04:18:05;;;;;;;3.70;3.40;;;20.60;62.70;;;;;;4994521;28;20187;-86
2022/06/16 04:20:31;;;;;;;3.55;3.25;;;20.60;62.80;;;;;;4994361;28;20211;-85
2022/06/16 04:22:57;;;;;;;4.10;3.70;;;20.60;62.70;;;;;;5010525;28;20152;-88
2022/06/16 04:25:30;;;;;;;3.30;3.00;;;20.60;62.70;;;;;;5011024;28;20180;-87
2022/06/16 04:27:58;;;;;;;3.63;3.33;;;20.60;62.70;;;;;;5009908;28;20156;-84
2022/06/16 04:30:24;;;;;;;3.58;3.28;;;20.60;62.70;;;;;;4993865;28;20171;-85
2022/06/16 04:32:49;;;;;;;3.65;3.35;;;20.60;62.80;;;;;;5010643;28;20161;-85
2022/06/16 04:35:15;;;;;;;3.60;3.30;;;20.50;62.70;;;;;;5010503;28;20152;-87
2022/06/16 04:37:40;;;;;;;3.65;3.30;;;20.50;62.70;;;;;;4994131;28;20172;-87
2022/06/16 04:40:08;;;;;;;3.53;3.22;;;20.60;62.90;;;;;;4993997;28;20168;-87
2022/06/16 04:42:34;;;;;;;3.35;3.05;;;20.50;62.90;;;;;;4993104;28;20175;-87
2022/06/16 04:44:59;;;;;;;3.40;3.10;;;20.50;62.90;;;;;;5010077;28;20220;-87
2022/06/16 04:47:25;;;;;;;3.63;3.33;;;20.50;62.90;;;;;;5010313;28;20180;-86
2022/06/16 04:49:51;;;;;;;3.70;3.40;;;20.60;63.00;;;;;;5010171;28;20148;-86
2022/06/16 04:52:17;;;;;;;3.60;3.30;;;20.50;62.90;;;;;;5010137;28;20239;-86
2022/06/16 04:54:44;;;;;;;3.72;3.42;;;20.50;62.80;;;;;;5010016;28;20235;-87
2022/06/16 04:57:10;;;;;;;3.60;3.30;;;20.60;62.70;;;;;;4994059;28;20588;-86
2022/06/16 04:59:36;;;;;;;3.15;2.85;;;20.60;62.60;;;;;;4994338;28;20168;-86
2022/06/16 05:02:02;;;;;;;2.90;2.70;;;20.60;62.50;;;;;;4993771;28;20267;-87
2022/06/16 05:04:28;;;;;;;3.30;3.00;;;20.60;62.60;;;;;;4993583;28;20342;-86
2022/06/16 05:06:55;;;;;;;3.13;2.83;;;20.60;62.70;;;;;;4994330;28;20256;-85
2022/06/16 05:09:21;;;;;;;3.00;2.70;;;20.60;63.00;;;;;;4994033;28;20168;-87
2022/06/16 05:11:47;;;;;;;2.90;2.67;;;20.50;63.10;;;;;;5009793;28;20199;-85
2022/06/16 05:14:13;;;;;;;3.08;2.75;;;20.50;63.40;;;;;;4993377;28;20164;-87
2022/06/16 05:16:38;;;;;;;2.72;2.53;;;20.40;63.50;;;;;;4993120;28;20168;-87
2022/06/16 05:19:04;;;;;;;2.65;2.45;;;20.30;63.60;;;;;;5009764;28;20230;-86
2022/06/16 05:21:30;;;;;;;2.75;2.55;;;20.40;63.90;;;;;;5009792;28;20237;-87
2022/06/16 05:23:55;;;;;;;2.42;2.22;;;20.40;63.90;;;;;;5009532;28;20180;-87
2022/06/16 05:26:21;;;;;;;2.80;2.60;;;20.30;64.00;;;;;;4993333;28;20643;-87
2022/06/16 05:28:47;;;;;;;2.72;2.53;;;20.30;63.90;;;;;;5009544;28;20231;-87
2022/06/16 05:31:12;;;;;;;3.15;2.40;;;20.30;64.80;;;;;;5009739;28;20156;-85
2022/06/16 05:33:38;;;;;;;2.90;2.70;;;20.30;64.00;;;;;;5009473;28;20183;-85
2022/06/16 05:36:06;;;;;;;3.20;2.85;;;20.30;63.90;;;;;;5009300;28;20441;-86
2022/06/16 05:38:32;;;;;;;2.50;2.30;;;20.20;63.90;;;;;;5009262;28;20164;-86
2022/06/16 05:41:01;;;;;;;2.53;2.33;;;20.30;63.90;;;;;;5009615;28;20199;-86
2022/06/16 05:43:27;;;;;;;2.80;2.50;;;20.30;63.90;;;;;;5008951;28;20184;-86
2022/06/16 05:45:53;;;;;;;2.55;2.35;;;20.20;63.70;;;;;;5009163;28;20231;-86
2022/06/16 05:48:19;;;;;;;2.60;2.40;;;20.30;63.60;;;;;;4992915;28;20211;-87
2022/06/16 05:50:44;;;;;;;2.58;2.38;;;20.40;63.40;;;;;;5009138;28;20160;-88
2022/06/16 05:53:10;;;;;;;2.33;2.13;;;20.40;63.40;;;;;;4993658;28;20507;-86
2022/06/16 05:55:36;;;;;;;2.38;2.17;;;20.50;63.10;;;;;;5008915;28;20227;-86
2022/06/16 05:58:02;;;;;;;2.50;2.30;;;20.40;63.10;;;;;;5009208;28;20160;-88
2022/06/16 06:00:28;;;;;;;2.70;2.50;;;20.50;63.10;;;;;;4992776;28;20171;-86
2022/06/16 06:02:57;;;;;;;2.50;2.30;;;20.40;63.10;;;;;;4993558;28;20168;-86
2022/06/16 06:05:23;;;;;;;2.60;2.40;;;20.50;63.00;;;;;;4994642;28;20171;-86
2022/06/16 06:18:29;;;;;;;2.90;2.70;;;20.50;63.00;;;;;;5007146;28;20178;-88
2022/06/16 06:20:54;;;;;;;3.17;2.88;;;20.50;63.10;;;;;;5008926;28;20610;-87
2022/06/16 06:23:20;;;;;;;3.15;2.85;;;20.50;63.10;;;;;;4992653;28;20211;-86
2022/06/16 06:25:46;;;;;;;2.83;2.63;;;20.50;63.10;;;;;;5008877;28;20187;-86
2022/06/16 06:28:12;;;;;;;2.92;2.63;;;20.50;62.90;;;;;;5008756;28;20160;-87
2022/06/16 06:30:37;;;;;;;3.20;2.90;;;20.50;62.90;;;;;;5008960;28;20361;-86
2022/06/16 06:33:04;;;;;;;2.80;2.60;;;20.60;63.00;;;;;;4992415;28;20160;-87
2022/06/16 06:35:30;;;;;;;2.83;2.63;;;20.50;63.10;;;;;;5008524;28;20153;-87
2022/06/16 06:37:56;;;;;;;3.08;2.80;;;20.60;63.90;;;;;;5008655;28;20160;-87
2022/06/16 06:40:24;;;;;;;2.92;2.63;;;20.60;62.50;;;;;;5008645;28;20163;-87
2022/06/16 06:42:50;;;;;;;2.90;2.70;;;20.70;62.40;;;;;;5009663;28;20156;-87
2022/06/16 06:45:16;;;;;;;2.80;2.60;;;20.70;62.40;;;;;;5010993;28;20297;-88
2022/06/16 06:47:42;;;;;;;2.83;2.60;;;20.70;62.50;;;;;;4991963;28;20647;-88
2022/06/16 06:50:10;;;;;;;2.90;2.60;;;20.80;62.30;;;;;;4992468;28;20283;-88
2022/06/16 06:52:35;;;;;;;2.70;2.50;;;20.80;62.10;;;;;;5008342;28;20164;-87
2022/06/16 06:55:01;;;;;;;2.70;2.50;;;20.90;62.00;;;;;;4993537;28;20164;-87
2022/06/16 06:57:27;;;;;;;3.40;3.10;;;20.80;62.00;;;;;;5008466;28;20163;-85
2022/06/16 06:59:53;;;;;;;2.88;2.67;;;20.90;62.20;;;;;;5008578;28;20149;-87
2022/06/16 07:02:19;;;;;;;2.70;2.50;;;20.90;62.00;;;;;;5008530;28;20156;-85
2022/06/16 07:04:45;;;;;;;2.70;2.50;;;20.90;62.00;;;;;;5008457;28;20242;-86
2022/06/16 07:07:12;;;;;;;2.80;2.60;;;21.00;61.90;;;;;;4995795;28;20622;-85
2022/06/16 07:09:38;;;;;;;3.03;2.72;;;21.00;61.80;;;;;;5012059;28;20203;-86
2022/06/16 07:12:04;;;;;;;3.08;2.80;;;20.90;61.60;;;;;;4995594;28;20168;-85
2022/06/16 07:14:30;;;;;;;2.80;2.60;;;20.90;62.00;;;;;;4995657;28;20230;-85
2022/06/16 07:16:56;;;;;;;3.05;2.70;;;20.90;62.10;;;;;;5011825;28;20550;-86
2022/06/16 07:19:22;;;;;;;2.90;2.70;;;20.80;62.20;;;;;;5011964;28;20214;-85
2022/06/16 07:21:48;;;;;;;2.78;2.58;;;20.70;62.20;;;;;;5011881;28;20172;-86
2022/06/16 07:24:13;;;;;;;2.78;2.58;;;20.90;62.10;;;;;;4995559;28;20222;-85
2022/06/16 07:26:39;;;;;;;3.30;3.00;;;20.90;61.80;;;;;;5012775;28;20160;-86
2022/06/16 07:29:05;;;;;;;2.90;2.60;;;20.90;61.80;;;;;;4996933;28;20263;-86
2022/06/16 07:31:31;;;;;;;2.90;2.60;;;21.00;61.50;;;;;;5011636;28;20152;-87
2022/06/16 07:33:57;;;;;;;2.88;2.67;;;20.90;61.60;;;;;;4995723;28;20179;-86
2022/06/16 07:36:22;;;;;;;2.72;2.53;;;20.90;61.60;;;;;;5011518;28;20573;-86
2022/06/16 07:38:49;;;;;;;2.60;2.40;;;20.90;61.80;;;;;;5011493;28;20192;-86
2022/06/16 07:44:00;;;;;;;2.53;2.33;;;20.90;61.90;;;;;;5008967;28;20598;-85
2022/06/16 07:46:25;;;;;;;3.60;2.67;;;20.90;61.80;;;;;;4994742;28;20278;-85
2022/06/16 07:48:51;;;;;;;3.05;2.75;;;21.00;61.60;;;;;;4996191;28;20156;-86
2022/06/16 07:51:18;;;;;;;2.78;2.58;;;21.10;61.40;;;;;;5011184;28;20156;-86
2022/06/16 07:53:43;;;;;;;3.42;2.70;;;21.20;61.50;;;;;;4994821;28;20168;-86
2022/06/16 07:56:09;;;;;;;4.38;2.65;;;21.10;61.40;;;;;;5011524;28;20156;-86
2022/06/16 07:58:35;;;;;;;2.80;2.60;;;21.10;61.30;;;;;;4994729;28;20176;-86
2022/06/16 08:01:00;;;;;;;3.70;2.60;;;21.10;61.20;;;;;;5011036;28;20164;-86
2022/06/16 08:03:28;;;;;;;3.20;2.58;;;21.10;61.30;;;;;;4994457;28;20287;-86
2022/06/16 08:05:54;;;;;;;3.30;3.00;;;21.10;61.40;;;;;;5010775;28;20149;-86
2022/06/16 08:08:36;;;;;;;3.30;2.50;;;21.10;61.30;;;;;;5011556;28;20156;-86
2022/06/16 08:11:02;;;;;;;3.50;2.38;;;21.10;61.20;;;;;;4957074;29;20200;-86
2022/06/16 08:13:32;;;;;;;2.70;2.50;;;21.20;61.00;;;;;;4925211;29;20355;-87
2022/06/16 08:15:58;;;;;;;5.03;2.47;;;21.20;61.10;;;;;;4943348;28;20264;-86
2022/06/16 08:18:24;;;;;;;2.67;2.47;;;21.20;60.90;;;;;;4958979;28;20248;-85
2022/06/16 08:20:50;;;;;;;2.88;2.58;;;21.30;60.50;;;;;;4943669;29;20180;-86
2022/06/16 08:23:16;;;;;;;4.65;2.67;;;21.20;60.60;;;;;;4925613;29;20224;-86
2022/06/16 08:28:20;;;;;;;2.83;2.60;;;21.20;60.70;;;;;;5039139;23;20290;-87
2022/06/16 08:30:51;;;;;;;4.43;2.47;;;21.30;60.50;;;;;;4985254;28;20179;-88
2022/06/16 08:33:29;;;;;;;4.30;2.45;;;21.20;60.60;;;;;;4993834;28;20175;-89
2022/06/16 08:35:55;;;;;;;3.78;2.50;;;21.20;60.50;;;;;;4992812;28;20167;-87
2022/06/16 08:38:23;;;;;;;4.47;2.70;;;21.30;60.50;;;;;;4933901;29;20201;-91
2022/06/16 08:41:11;;;;;;;2.70;2.45;;;21.30;60.40;;;;;;4950765;29;20181;-87
2022/06/16 08:43:39;;;;;;;2.60;2.40;;;21.30;60.20;;;;;;4936539;29;20231;-88
2022/06/16 08:46:05;;;;;;;2.80;2.50;;;21.30;60.20;;;;;;4916571;29;20193;-87
2022/06/16 08:48:39;;;;;;;2.83;2.55;;;21.30;59.90;;;;;;4915566;29;20229;-87
2022/06/16 08:51:15;;;;;;;3.55;2.60;;;21.30;60.10;;;;;;4915405;29;20168;-87
2022/06/16 08:54:11;;;;;;;2.70;2.50;;;21.40;60.00;;;;;;4917803;29;20181;-88
2022/06/16 08:56:58;;;;;;;2.67;2.47;;;21.30;59.80;;;;;;4964105;28;20195;-86
2022/06/16 08:59:51;;;;;;;2.60;2.08;;;21.40;59.80;;;;;;4951610;29;20209;-88
2022/06/16 09:02:34;;;;;;;2.75;2.30;;;21.50;59.80;;;;;;4934975;29;20205;-87
2022/06/16 09:05:14;;;;;;;4.40;2.28;;;21.40;59.90;;;;;;4952009;29;20287;-87
2022/06/16 09:07:47;;;;;;;3.15;2.17;;;21.50;59.60;;;;;;4936201;29;20173;-88
2022/06/16 09:10:38;;;;;;;3.25;2.30;;;21.40;59.70;;;;;;4985734;28;20230;-88
2022/06/16 09:13:35;;;;;;;2.50;2.20;;;21.40;59.70;;;;;;5005512;28;20156;-87
2022/06/16 09:16:09;;;;;;;4.63;2.38;;;21.40;59.80;;;;;;5004369;28;20262;-90
2022/06/16 09:19:04;;;;;;;2.33;2.13;;;21.40;59.80;;;;;;4991146;28;20174;-88
2022/06/16 09:21:54;;;;;;;5.82;2.65;;;21.50;59.20;;;;;;4990285;28;20171;-89
2022/06/16 09:24:54;;;;;;;2.92;2.30;;;21.50;59.50;;;;;;4991815;28;20651;-87
2022/06/16 09:27:38;;;;;;;2.38;2.17;;;21.50;59.10;;;;;;5022825;28;20215;-88
2022/06/16 09:30:09;;;;;;;2.55;2.20;;;21.50;59.40;;;;;;4991737;28;20159;-89
2022/06/16 09:32:42;;;;;;;2.78;2.28;;;21.40;59.60;;;;;;4990569;28;20159;-88
2022/06/16 09:35:14;;;;;;;2.72;2.47;;;21.40;59.60;;;;;;4971798;28;20171;-88
2022/06/16 09:37:58;;;;;;;2.60;2.40;;;21.30;59.60;;;;;;4972396;28;20202;-89
2022/06/16 09:40:33;;;;;;;2.47;2.28;;;21.30;60.00;;;;;;4986833;28;20214;-87
2022/06/16 09:43:10;;;;;;;2.35;2.15;;;21.30;60.10;;;;;;4970634;28;20600;-87
2022/06/16 09:45:42;;;;;;;3.05;2.30;;;21.30;59.80;;;;;;4970687;28;20199;-87
2022/06/16 09:48:14;;;;;;;3.15;2.30;;;21.40;59.80;;;;;;4986452;28;20179;-88
2022/06/16 09:50:53;;;;;;;2.55;2.35;;;21.30;59.50;;;;;;4972081;28;20167;-87
2022/06/16 09:53:47;;;;;;;2.35;2.15;;;21.40;59.30;;;;;;4973189;28;20175;-87
2022/06/16 09:56:18;;;;;;;2.53;2.33;;;21.40;59.40;;;;;;4976488;28;20159;-88
2022/06/16 09:58:52;;;;;;;2.50;2.30;;;21.40;59.10;;;;;;4972582;28;20171;-88
2022/06/16 10:01:19;;;;;;;2.50;2.30;;;21.40;59.20;;;;;;4986695;28;20231;-88
2022/06/16 10:03:57;;;;;;;2.40;2.20;;;21.50;59.40;;;;;;4970530;28;20203;-87
2022/06/16 10:06:38;;;;;;;2.30;2.10;;;21.50;59.10;;;;;;4991509;28;20151;-86
2022/06/16 10:09:20;;;;;;;3.72;2.17;;;21.50;59.00;;;;;;4989694;28;20183;-87
2022/06/16 10:12:15;;;;;;;4.30;2.40;;;21.40;58.90;;;;;;5003332;28;20222;-89
2022/06/16 10:14:49;;;;;;;2.42;2.22;;;21.50;58.80;;;;;;5003377;28;20156;-90
2022/06/16 10:17:17;;;;;;;2.75;2.22;;;21.50;58.70;;;;;;4969175;28;20716;-87
2022/06/16 10:19:44;;;;;;;2.67;1.90;;;21.50;58.70;;;;;;4989077;28;20168;-88
2022/06/16 10:22:17;;;;;;;2.50;2.30;;;21.50;58.80;;;;;;4974280;28;20158;-88
2022/06/16 10:25:00;;;;;;;2.38;2.13;;;21.50;58.80;;;;;;5009223;28;20218;-87
2022/06/16 10:27:33;;;;;;;2.55;2.35;;;21.50;59.00;;;;;;4976795;28;20167;-87
2022/06/16 10:30:11;;;;;;;;;;;;;;;;;;;;;
2022/06/16 10:32:41;;;;;;;2.58;2.00;;;21.60;58.60;;;;;;4976180;28;20210;-87
2022/06/16 10:35:10;;;;;;;2.33;2.10;;;21.50;58.50;;;;;;4972509;28;20270;-88
2022/06/16 10:37:40;;;;;;;2.30;2.10;;;21.60;58.10;;;;;;4974933;28;20159;-87
2022/06/16 10:40:30;;;;;;;2.60;2.40;;;21.60;58.40;;;;;;4990988;28;20159;-88
2022/06/16 10:43:00;;;;;;;2.33;2.10;;;21.50;58.60;;;;;;4998154;28;20290;-88
2022/06/16 10:45:28;;;;;;;2.05;1.90;;;21.50;58.60;;;;;;4996352;28;20167;-88
2022/06/16 10:48:00;;;;;;;2.10;1.90;;;21.50;58.30;;;;;;5011442;28;20160;-86
2022/06/16 10:50:37;;;;;;;2.30;2.10;;;21.50;58.10;;;;;;4980400;28;20160;-87
2022/06/16 10:53:12;;;;;;;2.28;2.08;;;21.50;58.60;;;;;;4979552;28;20261;-86
2022/06/16 10:55:44;;;;;;;2.20;2.00;;;21.40;58.70;;;;;;4980785;28;20171;-86
2022/06/16 10:58:24;;;;;;;2.30;2.10;;;21.50;57.90;;;;;;4996402;28;20172;-87
2022/06/16 11:01:16;;;;;;;2.75;2.00;;;21.50;58.00;;;;;;4980124;28;20167;-87
2022/06/16 11:03:46;;;;;;;2.22;2.03;;;21.60;58.30;;;;;;4997025;28;20199;-87
2022/06/16 11:06:14;;;;;;;1.98;1.88;;;21.50;58.10;;;;;;4995868;28;20206;-88
2022/06/16 11:08:47;;;;;;;2.15;1.95;;;21.60;57.40;;;;;;5011336;28;20156;-87
2022/06/16 11:11:16;;;;;;;3.08;1.90;;;21.50;58.30;;;;;;4996584;28;20215;-86
2022/06/16 11:13:53;;;;;;;2.33;2.13;;;21.50;58.00;;;;;;4979320;28;20541;-88
2022/06/16 11:16:31;;;;;;;2.13;1.92;;;21.50;57.80;;;;;;4979435;28;20159;-87
2022/06/16 11:18:59;;;;;;;2.95;2.10;;;21.50;58.00;;;;;;4978837;28;20194;-88
2022/06/16 11:21:29;;;;;;;2.38;2.17;;;21.50;58.00;;;;;;4993799;28;20625;-88
2022/06/16 11:23:58;;;;;;;2.28;2.08;;;21.50;58.50;;;;;;5010983;28;20195;-88
2022/06/16 11:26:33;;;;;;;2.05;1.85;;;21.50;58.20;;;;;;4995851;28;20152;-87
2022/06/16 11:29:20;;;;;;;2.38;2.17;;;21.50;58.50;;;;;;4992367;28;20222;-89
2022/06/16 11:31:50;;;;;;;2.05;1.85;;;21.40;58.70;;;;;;4992239;28;20254;-86
2022/06/16 11:34:19;;;;;;;2.20;2.00;;;21.40;58.70;;;;;;5010946;28;20187;-89
2022/06/16 11:37:19;;;;;;;1.92;1.80;;;21.40;58.20;;;;;;4993574;28;20190;-87
2022/06/16 11:43:52;;;;;;;;;;;;;;;;;;;;;
2022/06/16 11:46:21;;;;;;;2.88;2.10;;;21.40;58.60;;;;;;4951933;29;20204;-87
2022/06/16 11:49:06;;;;;;;6.68;2.20;;;21.40;58.60;;;;;;4935609;29;20300;-87
2022/06/16 11:51:48;;;;;;;3.25;2.08;;;21.30;58.50;;;;;;4952020;29;20154;-87
2022/06/16 11:54:34;;;;;;;4.68;2.05;;;21.40;58.70;;;;;;4936409;29;20264;-88
2022/06/16 11:57:07;;;;;;;2.40;1.60;;;21.40;58.60;;;;;;4936313;29;20562;-86
2022/06/16 12:00:06;;;;;;;4.03;1.98;;;21.40;57.90;;;;;;4932395;29;20188;-86
2022/06/16 12:02:45;;;;;;;3.20;1.83;;;21.50;57.50;;;;;;4951932;29;20181;-86
2022/06/16 12:05:33;;;;;;;4.55;1.70;;;21.60;57.30;;;;;;4923472;29;20739;-85
2022/06/16 12:08:16;;;;;;;2.75;2.20;;;21.70;57.30;;;;;;4910489;29;20599;-87
2022/06/16 12:10:50;;;;;;;1.70;1.60;;;21.80;56.70;;;;;;4921866;29;20635;-86
2022/06/16 12:13:24;;;;;;;2.03;1.70;;;21.90;56.00;;;;;;4945359;29;20206;-85
2022/06/16 12:16:20;;;;;;;2.30;1.75;;;21.90;55.30;;;;;;4944144;28;20168;-85
2022/06/16 12:19:19;;;;;;;2.05;1.70;;;21.90;55.50;;;;;;4947398;28;20285;-89
2022/06/16 12:21:53;;;;;;;1.65;1.55;;;22.00;55.60;;;;;;5001338;28;20207;-88
2022/06/16 12:24:41;;;;;;;1.58;1.45;;;21.90;55.30;;;;;;4985060;28;20198;-88
2022/06/16 12:27:13;;;;;;;2.85;1.58;;;22.10;55.10;;;;;;5001105;28;20179;-90
2022/06/16 12:29:56;;;;;;;2.05;1.85;;;22.10;55.00;;;;;;5001443;28;20184;-86
2022/06/16 12:32:36;;;;;;;3.15;1.75;;;22.00;55.20;;;;;;5002213;28;20176;-86
2022/06/16 12:35:29;;;;;;;1.85;1.50;;;22.00;55.40;;;;;;5000144;28;20171;-88
2022/06/16 12:37:58;;;;;;;2.95;1.65;;;22.00;54.20;;;;;;5020561;28;20179;-87
2022/06/16 12:40:38;;;;;;;2.00;1.65;;;21.90;55.00;;;;;;5002479;28;20186;-87
2022/06/16 12:43:21;;;;;;;5.47;1.75;;;22.10;55.50;;;;;;4982942;28;20569;-89
2022/06/16 12:45:53;;;;;;;1.90;1.40;;;22.00;55.30;;;;;;4987927;28;20190;-87
2022/06/16 12:48:27;;;;;;;5.55;1.60;;;22.00;54.70;;;;;;5004702;28;20178;-87
2022/06/16 12:50:59;;;;;;;6.20;1.90;;;22.00;54.90;;;;;;4988568;28;20658;-88
2022/06/16 12:53:39;;;;;;;4.72;1.75;;;22.00;55.90;;;;;;4986316;28;20163;-90
2022/06/16 12:56:12;;;;;;;4.43;1.48;;;22.00;55.10;;;;;;4986099;28;20191;-91
2022/06/16 12:58:49;;;;;;;1.55;1.40;;;22.00;55.70;;;;;;4982629;28;20191;-91
2022/06/16 13:01:18;;;;;;;1.83;1.40;;;22.10;55.10;;;;;;4983188;28;20203;-88
2022/06/16 13:04:11;;;;;;;2.15;1.35;;;22.20;54.10;;;;;;4985391;28;20191;-89
2022/06/16 13:06:44;;;;;;;3.85;1.60;;;22.20;54.00;;;;;;4976288;28;20183;-93
2022/06/16 13:09:11;;;;;;;3.05;1.48;;;22.30;53.80;;;;;;4962146;28;20169;-89
2022/06/16 13:11:52;;;;;;;5.75;1.55;;;22.20;53.40;;;;;;4947087;28;20173;-88
2022/06/16 13:15:19;;;;;;;5.13;1.70;;;22.20;54.50;;;;;;4966567;28;20180;-87
2022/06/16 13:21:23;;;;;;;1.85;1.42;;;22.00;55.00;;;;;;4904925;29;20231;-90
2022/06/16 13:27:49;;;;;;;2.35;1.65;;;21.90;55.20;;;;;;4890077;29;20211;-89
2022/06/16 13:31:13;;;;;;;;;;;;;;;;;;;;;
2022/06/16 13:34:57;;;;;;;1.50;1.40;;;21.80;55.50;;;;;;4829942;29;20278;-89
2022/06/16 13:40:29;;;;;;;1.85;1.50;;;21.90;54.20;;;;;;4870443;29;20188;-89
2022/06/16 13:43:45;;;;;;;1.77;1.67;;;22.00;55.10;;;;;;4855489;29;20192;-90
2022/06/16 13:53:57;;;;;;;3.20;1.50;;;21.90;54.20;;;;;;4815881;29;20179;-90
2022/06/16 13:56:58;;;;;;;1.73;1.40;;;21.90;54.20;;;;;;4794412;29;20571;-91
2022/06/16 13:59:59;;;;;;;1.85;1.50;;;21.90;54.70;;;;;;4794236;29;20238;-91
2022/06/16 14:06:03;;;;;;;4.50;1.63;;;21.90;54.60;;;;;;4785916;30;20600;-91
2022/06/16 14:08:44;;;;;;;2.75;1.50;;;21.80;55.20;;;;;;4756290;30;20192;-91
2022/06/16 14:11:36;;;;;;;2.85;1.70;;;21.80;55.00;;;;;;4770427;30;20196;-92